Time;durP1;ratioP1;P1;durP2;ratioP2;P2;SDS_P1;SDS_P2;PMS_P1;PMS_P2;Temp;Humidity;BMP_temperature;BMP_pressure;BME280_temperature;BME280_humidity;BME280_pressure;Samples;Min_cycle;Max_cycle;Signal;HPM_P1;HPM_P2
2022/06/04 00:00:00;;;;;;;;;;;;;;;16.81;41.63;101081.91;5056005;28;885;-56
2022/06/04 00:02:26;;;;;;;;;;;;;;;16.85;41.43;101071.22;5056707;28;981;-57
2022/06/04 00:04:51;;;;;;;;;;;;;;;16.86;41.47;101070.13;5055798;28;1163;-56
2022/06/04 00:07:16;;;;;;;;;;;;;;;16.82;41.65;101075.31;5040591;28;1287;-56
2022/06/04 00:15:29;;;;;;;;;;;;;;;16.86;41.59;101072.88;5055262;28;1909;-56
2022/06/04 00:15:29;;;;;;;;;;;;;;;16.84;41.44;101075.06;5057018;28;1089;-56
2022/06/04 00:17:55;;;;;;;;;;;;;;;16.86;41.50;101075.63;5075339;28;1005;-56
2022/06/04 00:20:21;;;;;;;;;;;;;;;16.86;41.12;101078.38;5077590;28;985;-56
2022/06/04 00:22:46;;;;;;;;;;;;;;;16.85;41.33;101073.97;5079237;28;841;-56
2022/06/04 00:25:12;;;;;;;;;;;;;;;16.87;41.26;101077.25;5078890;28;971;-56
2022/06/04 00:27:38;;;;;;;;;;;;;;;16.82;41.21;101077.25;5061302;28;936;-56
2022/06/04 00:30:05;;;;;;;;;;;;;;;16.83;41.42;101070.66;5078896;28;2023;-56
2022/06/04 00:32:30;;;;;;;;;;;;;;;16.83;41.26;101076.13;5058496;28;1006;-56
2022/06/04 00:34:56;;;;;;;;;;;;;;;16.83;41.18;101068.75;5059179;28;797;-56
2022/06/04 00:37:21;;;;;;;;;;;;;;;16.86;41.17;101070.13;5040833;28;1206;-57
2022/06/04 00:39:47;;;;;;;;;;;;;;;16.78;41.32;101068.72;5058483;28;818;-57
2022/06/04 00:42:13;;;;;;;;;;;;;;;16.85;40.82;101062.97;5059120;28;861;-56
2022/06/04 00:44:48;;;;;;;;;;;;;;;16.81;41.19;101067.34;5058610;28;979;-56
2022/06/04 00:47:15;;;;;;;;;;;;;;;16.86;41.08;101070.13;5076433;28;834;-57
2022/06/04 00:49:40;;;;;;;;;;;;;;;16.82;41.08;101071.75;5078739;28;1983;-55
2022/06/04 00:52:08;;;;;;;;;;;;;;;16.83;40.92;101076.13;5078674;28;771;-55
2022/06/04 00:54:33;;;;;;;;;;;;;;;16.84;40.86;101055.84;5078315;28;1521;-55
2022/06/04 00:57:01;;;;;;;;;;;;;;;16.83;40.72;101057.75;5078602;28;835;-55
2022/06/04 00:59:30;;;;;;;;;;;;;;;16.86;40.87;101050.91;5078548;28;762;-55
2022/06/04 01:01:58;;;;;;;;;;;;;;;16.85;40.60;101052.00;5076949;28;840;-55
2022/06/04 01:04:48;;;;;;;;;;;;;;;16.83;40.65;101049.53;5078617;28;798;-55
2022/06/04 01:07:34;;;;;;;;;;;;;;;16.85;40.73;101049.25;5078716;28;842;-55
2022/06/04 01:10:19;;;;;;;;;;;;;;;16.81;40.71;101034.41;5067721;28;1918;-55
2022/06/04 01:12:54;;;;;;;;;;;;;;;16.89;40.53;101025.69;5057671;28;1427;-55
2022/06/04 01:15:35;;;;;;;;;;;;;;;16.90;40.82;101038.28;5041252;28;1033;-55
2022/06/04 01:18:19;;;;;;;;;;;;;;;16.87;41.00;101044.31;5078128;28;802;-55
2022/06/04 01:20:52;;;;;;;;;;;;;;;16.86;40.70;101039.91;5078020;28;878;-55
2022/06/04 01:23:20;;;;;;;;;;;;;;;16.87;41.01;101045.16;5059780;28;864;-55
2022/06/04 01:25:46;;;;;;;;;;;;;;;16.92;40.75;101034.19;5077972;28;779;-55
2022/06/04 01:28:15;;;;;;;;;;;;;;;16.87;40.94;101036.06;5078335;28;839;-55
2022/06/04 01:30:42;;;;;;;;;;;;;;;16.90;40.83;101049.28;5058132;28;1977;-55
2022/06/04 01:33:12;;;;;;;;;;;;;;;16.87;40.82;101039.66;5077432;28;892;-55
2022/06/04 01:35:37;;;;;;;;;;;;;;;16.93;40.79;101054.25;5049422;28;824;-56
2022/06/04 01:38:05;;;;;;;;;;;;;;;16.93;40.75;101044.09;5057836;28;818;-56
2022/06/04 01:43:26;;;;;;;;;;;;;;;16.87;40.98;101056.13;5042550;28;834;-56
2022/06/04 01:45:52;;;;;;;;;;;;;;;16.92;40.92;101052.59;5040281;28;947;-55
2022/06/04 01:48:17;;;;;;;;;;;;;;;16.96;40.92;101050.13;5050613;28;818;-55
2022/06/04 01:50:43;;;;;;;;;;;;;;;16.94;40.71;101044.91;5059591;28;2003;-55
2022/06/04 01:53:09;;;;;;;;;;;;;;;16.86;41.04;101043.47;5059727;28;786;-55
2022/06/04 01:55:36;;;;;;;;;;;;;;;16.82;41.21;101052.53;5059476;28;837;-55
2022/06/04 01:58:03;;;;;;;;;;;;;;;16.91;40.73;101049.03;5060114;28;766;-55
2022/06/04 02:00:30;;;;;;;;;;;;;;;16.89;41.01;101051.22;5055711;28;844;-55
2022/06/04 02:03:04;;;;;;;;;;;;;;;16.92;40.91;101049.84;5057610;28;825;-55
2022/06/04 02:05:31;;;;;;;;;;;;;;;16.87;40.87;101049.78;5057602;28;853;-55
2022/06/04 02:07:56;;;;;;;;;;;;;;;16.99;40.83;101046.84;5072400;28;835;-55
2022/06/04 02:10:27;;;;;;;;;;;;;;;16.92;40.82;101041.63;5057009;28;1906;-56
2022/06/04 02:12:54;;;;;;;;;;;;;;;16.88;40.88;101046.81;5057375;28;900;-55
2022/06/04 02:15:21;;;;;;;;;;;;;;;16.92;41.05;101049.84;5058810;28;1077;-55
2022/06/04 02:17:48;;;;;;;;;;;;;;;16.90;40.89;101054.78;5058562;28;848;-56
2022/06/04 02:20:13;;;;;;;;;;;;;;;16.95;40.82;101035.56;5059419;28;758;-56
2022/06/04 02:22:39;;;;;;;;;;;;;;;16.92;40.74;101025.13;5076638;28;782;-55
2022/06/04 02:25:05;;;;;;;;;;;;;;;16.90;41.03;101041.88;5077488;28;803;-55
2022/06/04 02:27:30;;;;;;;;;;;;;;;16.88;41.10;101035.81;5076857;28;872;-55
2022/06/04 02:29:56;;;;;;;;;;;;;;;16.85;41.02;101043.75;5057912;28;1984;-55
2022/06/04 02:32:32;;;;;;;;;;;;;;;16.82;40.96;101036.88;5057836;28;848;-55
2022/06/04 02:35:00;;;;;;;;;;;;;;;16.90;40.80;101024.56;5038229;28;840;-54
2022/06/04 02:37:26;;;;;;;;;;;;;;;16.84;40.92;101020.13;5038999;28;833;-55
2022/06/04 02:40:08;;;;;;;;;;;;;;;16.84;41.11;101018.19;5072639;28;848;-54
2022/06/04 02:42:42;;;;;;;;;;;;;;;16.80;41.13;101008.84;5057995;28;844;-55
2022/06/04 02:45:24;;;;;;;;;;;;;;;16.82;41.06;101009.41;5075964;28;811;-55
2022/06/04 02:47:58;;;;;;;;;;;;;;;16.88;40.66;101018.50;5056836;28;790;-54
2022/06/04 02:50:27;;;;;;;;;;;;;;;16.92;40.82;101008.66;5038799;28;1917;-55
2022/06/04 02:52:53;;;;;;;;;;;;;;;16.93;40.80;101002.06;5056211;28;880;-55
2022/06/04 02:55:19;;;;;;;;;;;;;;;16.89;40.80;101003.69;5038070;28;1044;-55
2022/06/04 02:57:47;;;;;;;;;;;;;;;16.91;40.77;101009.75;5038077;28;1067;-55
2022/06/04 03:00:14;;;;;;;;;;;;;;;16.92;40.72;101014.16;5039870;28;886;-54
2022/06/04 03:02:39;;;;;;;;;;;;;;;16.95;40.57;101018.28;5058061;28;842;-55
2022/06/04 03:05:06;;;;;;;;;;;;;;;16.86;40.57;101009.72;5076150;28;1382;-55
2022/06/04 03:07:31;;;;;;;;;;;;;;;16.89;40.62;101014.69;5076051;28;866;-55
2022/06/04 03:09:59;;;;;;;;;;;;;;;16.87;40.61;101019.56;5076331;28;1913;-55
2022/06/04 03:12:25;;;;;;;;;;;;;;;16.86;40.79;101013.28;5058848;28;833;-55
2022/06/04 03:14:50;;;;;;;;;;;;;;;16.90;40.55;101017.16;5076226;28;1219;-55
2022/06/04 03:17:16;;;;;;;;;;;;;;;16.92;40.50;101014.16;5074358;28;991;-57
2022/06/04 03:19:41;;;;;;;;;;;;;;;16.86;40.70;101015.19;5076283;28;834;-58
2022/06/04 03:22:07;;;;;;;;;;;;;;;16.93;40.66;100999.31;5075829;28;854;-58
2022/06/04 03:24:32;;;;;;;;;;;;;;;16.87;40.70;101003.09;5076375;28;785;-58
2022/06/04 03:26:57;;;;;;;;;;;;;;;16.89;40.90;101006.44;5076519;28;809;-58
2022/06/04 03:29:23;;;;;;;;;;;;;;;16.84;41.09;101006.38;5073683;28;1906;-58
2022/06/04 03:31:49;;;;;;;;;;;;;;;16.90;40.80;101022.66;5062526;28;1787;-59
2022/06/04 03:34:14;;;;;;;;;;;;;;;16.91;40.79;101024.31;5061410;28;968;-59
2022/06/04 03:36:40;;;;;;;;;;;;;;;16.99;40.86;101025.69;5061950;28;1196;-60
2022/06/04 03:39:05;;;;;;;;;;;;;;;16.96;40.93;101029.00;5067236;28;1000;-58
2022/06/04 03:41:31;;;;;;;;;;;;;;;16.95;41.12;101018.28;5065563;28;1067;-62
2022/06/04 03:43:56;;;;;;;;;;;;;;;16.91;40.91;101028.97;5065997;28;886;-58
2022/06/04 03:46:24;;;;;;;;;;;;;;;16.87;41.07;101022.31;5062794;28;875;-57
2022/06/04 03:48:50;;;;;;;;;;;;;;;16.93;41.04;101035.03;5056971;28;1989;-57
2022/06/04 03:51:16;;;;;;;;;;;;;;;16.92;40.86;101041.63;5069503;28;1087;-58
2022/06/04 03:53:41;;;;;;;;;;;;;;;16.94;40.80;101042.16;5067496;28;1071;-59
2022/06/04 03:56:07;;;;;;;;;;;;;;;16.90;40.87;101054.78;5073679;28;1063;-58
2022/06/04 03:58:32;;;;;;;;;;;;;;;16.88;40.90;101056.94;5075054;28;1070;-58
2022/06/04 04:00:57;;;;;;;;;;;;;;;16.97;41.05;101071.84;5069506;28;1068;-58
2022/06/04 04:03:23;;;;;;;;;;;;;;;17.02;40.93;101080.09;5068836;28;1273;-59
2022/06/04 04:05:49;;;;;;;;;;;;;;;16.98;41.01;101084.47;5069169;28;1024;-58
2022/06/04 04:08:15;;;;;;;;;;;;;;;17.00;40.75;101075.97;5070585;28;1166;-58
2022/06/04 04:10:41;;;;;;;;;;;;;;;16.99;41.14;101066.91;5063522;28;1975;-58
2022/06/04 04:13:06;;;;;;;;;;;;;;;16.98;40.90;101067.19;5058796;28;1028;-58
2022/06/04 04:15:32;;;;;;;;;;;;;;;16.94;41.05;101061.38;5064827;28;1444;-58
2022/06/04 04:17:57;;;;;;;;;;;;;;;16.98;40.90;101068.00;5071174;28;1035;-57
2022/06/04 04:20:24;;;;;;;;;;;;;;;16.95;41.24;101068.53;5066077;28;1427;-58
2022/06/04 04:22:49;;;;;;;;;;;;;;;17.03;40.85;101072.69;5069312;28;1039;-57
2022/06/04 04:25:17;;;;;;;;;;;;;;;17.02;41.10;101071.84;5067055;28;1233;-58
2022/06/04 04:27:43;;;;;;;;;;;;;;;17.07;40.79;101077.38;5061657;28;1087;-57
2022/06/04 04:30:09;;;;;;;;;;;;;;;17.00;40.95;101076.81;5064168;28;1905;-60
2022/06/04 04:32:35;;;;;;;;;;;;;;;17.01;41.29;101075.72;5071967;28;946;-60
2022/06/04 04:35:00;;;;;;;;;;;;;;;17.09;41.32;101072.44;5072376;28;1186;-61
2022/06/04 04:37:26;;;;;;;;;;;;;;;17.12;41.35;101084.00;5059759;28;1040;-59
2022/06/04 04:39:51;;;;;;;;;;;;;;;17.08;41.18;101086.44;5072046;28;1043;-59
2022/06/04 04:42:17;;;;;;;;;;;;;;;17.08;41.31;101094.69;5067791;28;1016;-59
2022/06/04 04:44:42;;;;;;;;;;;;;;;17.02;41.36;101091.09;5063726;28;992;-58
2022/06/04 04:47:08;;;;;;;;;;;;;;;16.81;42.86;101081.09;5064355;28;921;-58
2022/06/04 04:49:33;;;;;;;;;;;;;;;16.71;43.36;101096.41;5062714;28;1914;-60
2022/06/04 04:51:59;;;;;;;;;;;;;;;16.59;43.92;101093.88;5060797;28;1103;-60
2022/06/04 04:54:25;;;;;;;;;;;;;;;16.58;44.26;101091.41;5061420;28;1156;-60
2022/06/04 04:56:51;;;;;;;;;;;;;;;16.56;44.59;101096.31;5059608;28;1457;-59
2022/06/04 04:59:16;;;;;;;;;;;;;;;16.47;44.60;101097.94;5068551;28;1175;-60
2022/06/04 05:01:42;;;;;;;;;;;;;;;16.42;44.77;101091.31;5076064;28;961;-59
2022/06/04 05:04:08;;;;;;;;;;;;;;;16.40;44.76;101090.75;5069342;28;1017;-57
2022/06/04 05:06:33;;;;;;;;;;;;;;;16.41;44.97;101094.31;5072987;28;1024;-57
2022/06/04 05:08:59;;;;;;;;;;;;;;;16.37;44.70;101099.50;5062776;28;1902;-56
2022/06/04 05:11:27;;;;;;;;;;;;;;;16.31;44.98;101097.81;5063524;28;1009;-55
2022/06/04 05:13:53;;;;;;;;;;;;;;;16.21;45.30;101116.94;5066695;28;1182;-58
2022/06/04 05:16:19;;;;;;;;;;;;;;;16.22;45.28;101116.69;5076491;28;1104;-56
2022/06/04 05:18:45;;;;;;;;;;;;;;;16.25;44.82;101115.34;5069228;28;1031;-60
2022/06/04 05:21:11;;;;;;;;;;;;;;;16.29;44.88;101110.97;5067449;28;1005;-60
2022/06/04 05:23:37;;;;;;;;;;;;;;;16.23;44.80;101112.03;5062718;28;989;-62
2022/06/04 05:26:03;;;;;;;;;;;;;;;16.24;45.02;101113.69;5073104;28;1151;-60
2022/06/04 05:28:28;;;;;;;;;;;;;;;16.22;45.17;101110.38;5069433;28;1020;-64
2022/06/04 05:30:54;;;;;;;;;;;;;;;16.19;45.06;101116.41;5063116;28;1910;-60
2022/06/04 05:33:20;;;;;;;;;;;;;;;16.18;45.13;101117.47;5065250;28;1063;-62
2022/06/04 05:35:45;;;;;;;;;;;;;;;16.17;45.24;101107.59;5058715;28;992;-60
2022/06/04 05:38:10;;;;;;;;;;;;;;;16.06;45.54;101110.25;5067894;28;936;-59
2022/06/04 05:40:36;;;;;;;;;;;;;;;16.06;45.34;101113.00;5075624;28;1079;-61
2022/06/04 05:43:01;;;;;;;;;;;;;;;16.13;45.17;101123.75;5062230;28;1131;-61
2022/06/04 05:45:27;;;;;;;;;;;;;;;16.10;45.21;101121.53;5061325;28;1000;-62
2022/06/04 05:47:52;;;;;;;;;;;;;;;16.05;45.14;101119.56;5067064;28;1020;-64
2022/06/04 05:50:17;;;;;;;;;;;;;;;16.08;45.20;101119.03;5065010;28;1886;-63
2022/06/04 05:52:43;;;;;;;;;;;;;;;16.05;45.24;101116.84;5045863;28;1258;-64
2022/06/04 05:55:08;;;;;;;;;;;;;;;16.00;45.16;101125.00;5058285;28;1012;-63
2022/06/04 05:57:34;;;;;;;;;;;;;;;15.99;45.29;101123.38;5073586;28;1179;-63
2022/06/04 05:59:59;;;;;;;;;;;;;;;15.91;45.64;101137.56;5073541;28;972;-60
2022/06/04 06:02:25;;;;;;;;;;;;;;;15.96;45.18;101129.34;5069522;28;1018;-58
2022/06/04 06:04:50;;;;;;;;;;;;;;;15.84;45.55;101128.72;5071847;28;1012;-60
2022/06/04 06:07:16;;;;;;;;;;;;;;;15.90;45.52;101124.94;5061591;28;1060;-63
2022/06/04 06:09:41;;;;;;;;;;;;;;;15.91;45.34;101132.06;5064206;28;1984;-60
2022/06/04 06:12:07;;;;;;;;;;;;;;;15.95;47.10;101126.88;5059579;28;1039;-62
2022/06/04 06:14:32;;;;;;;;;;;;;;;15.95;46.06;101135.94;5061250;28;1253;-61
2022/06/04 06:16:59;;;;;;;;;;;;;;;15.89;45.87;101134.22;5062901;28;1482;-63
2022/06/04 06:19:25;;;;;;;;;;;;;;;15.90;46.23;101133.97;5058668;28;1123;-58
2022/06/04 06:21:50;;;;;;;;;;;;;;;15.96;46.97;101139.50;5056851;28;1146;-60
2022/06/04 06:24:16;;;;;;;;;;;;;;;15.98;46.57;101131.88;5063193;28;1005;-60
2022/06/04 06:26:43;;;;;;;;;;;;;;;16.00;46.72;101130.50;5067994;28;1213;-62
2022/06/04 06:29:08;;;;;;;;;;;;;;;15.95;46.45;101127.72;5069636;28;1913;-58
2022/06/04 06:31:34;;;;;;;;;;;;;;;15.94;45.93;101128.00;5063471;28;1076;-57
2022/06/04 06:33:59;;;;;;;;;;;;;;;15.84;45.90;101135.03;5060170;28;1072;-59
2022/06/04 06:36:25;;;;;;;;;;;;;;;15.86;45.69;101124.59;5043048;28;1091;-58
2022/06/04 06:38:50;;;;;;;;;;;;;;;15.83;45.79;101130.63;5062413;28;1397;-57
2022/06/04 06:41:17;;;;;;;;;;;;;;;15.85;45.68;101128.47;5063908;28;1688;-57
2022/06/04 06:43:51;;;;;;;;;;;;;;;15.81;45.97;101134.69;5071488;28;1020;-56
2022/06/04 06:46:20;;;;;;;;;;;;;;;15.86;45.89;101127.34;5062526;28;901;-57
2022/06/04 06:48:46;;;;;;;;;;;;;;;15.79;45.77;101123.16;5069629;28;1917;-58
2022/06/04 06:51:11;;;;;;;;;;;;;;;15.80;45.72;101122.09;5067733;28;1019;-57
2022/06/04 06:53:36;;;;;;;;;;;;;;;15.80;45.54;101122.09;5063534;28;1135;-57
2022/06/04 06:56:12;;;;;;;;;;;;;;;15.71;45.61;101117.06;5068407;28;1091;-58
2022/06/04 06:58:38;;;;;;;;;;;;;;;15.80;45.57;101122.91;5043308;28;1210;-57
2022/06/04 07:01:04;;;;;;;;;;;;;;;15.70;45.77;101120.88;5069455;28;964;-59
2022/06/04 07:03:29;;;;;;;;;;;;;;;15.73;45.76;101114.06;5068340;28;949;-57
2022/06/04 07:05:55;;;;;;;;;;;;;;;15.68;45.41;101114.84;5068524;28;1107;-58
2022/06/04 07:08:21;;;;;;;;;;;;;;;15.68;45.50;101114.84;5063868;28;976;-56
2022/06/04 07:10:47;;;;;;;;;;;;;;;15.68;45.94;101105.75;5069821;28;1905;-57
2022/06/04 07:13:12;;;;;;;;;;;;;;;15.72;45.67;101107.75;5063656;28;1075;-57
2022/06/04 07:15:38;;;;;;;;;;;;;;;15.69;45.77;101107.44;5051165;28;1154;-57
2022/06/04 07:18:03;;;;;;;;;;;;;;;15.65;45.92;101101.63;5047689;28;969;-60
2022/06/04 07:20:28;;;;;;;;;;;;;;;15.76;45.39;101099.00;5049372;28;1202;-58
2022/06/04 07:22:54;;;;;;;;;;;;;;;15.71;45.71;101103.34;5049662;28;944;-58
2022/06/04 07:25:21;;;;;;;;;;;;;;;15.66;45.81;101102.47;5045165;28;964;-57
2022/06/04 07:27:47;;;;;;;;;;;;;;;15.71;45.67;101099.75;5049500;28;1066;-57
2022/06/04 07:30:12;;;;;;;;;;;;;;;15.64;45.50;101089.03;5051338;28;1901;-57
2022/06/04 07:32:37;;;;;;;;;;;;;;;15.69;45.79;101086.31;5050143;28;953;-56
2022/06/04 07:35:03;;;;;;;;;;;;;;;15.60;45.90;101093.38;5048025;28;1011;-56
2022/06/04 07:37:29;;;;;;;;;;;;;;;15.56;46.01;101082.09;5057450;28;1182;-56
2022/06/04 07:39:54;;;;;;;;;;;;;;;15.57;45.98;101077.41;5046220;28;961;-58
2022/06/04 07:42:19;;;;;;;;;;;;;;;15.63;46.11;101073.66;5049584;28;956;-57
2022/06/04 07:44:45;;;;;;;;;;;;;;;15.61;46.11;101080.47;5050667;28;885;-58
2022/06/04 07:47:12;;;;;;;;;;;;;;;15.69;46.70;101085.50;5053827;28;938;-57
2022/06/04 07:49:37;;;;;;;;;;;;;;;15.82;47.49;101078.78;5046772;28;1976;-56
2022/06/04 07:52:03;;;;;;;;;;;;;;;15.94;48.04;101076.69;5052022;28;1134;-56
2022/06/04 07:54:29;;;;;;;;;;;;;;;16.11;48.63;101081.22;5055976;28;1082;-56
2022/06/04 07:56:54;;;;;;;;;;;;;;;16.19;48.87;101078.00;5055842;28;1094;-57
2022/06/04 07:59:20;;;;;;;;;;;;;;;16.24;48.88;101069.78;5051999;28;1094;-58
2022/06/04 08:01:45;;;;;;;;;;;;;;;16.24;49.30;101078.84;5053086;28;1118;-56
2022/06/04 08:04:11;;;;;;;;;;;;;;;16.29;49.67;101075.31;5050348;28;1031;-58
2022/06/04 08:06:37;;;;;;;;;;;;;;;16.40;49.06;101079.75;5046461;28;949;-57
2022/06/04 08:09:02;;;;;;;;;;;;;;;16.46;49.48;101077.06;5048201;28;1977;-56
2022/06/04 08:11:31;;;;;;;;;;;;;;;16.58;49.79;101074.94;5051738;28;1043;-59
2022/06/04 08:13:56;;;;;;;;;;;;;;;16.56;49.93;101071.63;5049800;28;1102;-57
2022/06/04 08:16:22;;;;;;;;;;;;;;;16.62;50.18;101070.56;5072975;28;1179;-58
2022/06/04 08:18:47;;;;;;;;;;;;;;;16.75;50.05;101072.00;5069679;28;1190;-57
2022/06/04 08:21:13;;;;;;;;;;;;;;;16.79;50.12;101075.88;5076854;28;1007;-57
2022/06/04 08:23:43;;;;;;;;;;;;;;;16.76;50.30;101065.44;5074234;28;902;-57
2022/06/04 08:26:08;;;;;;;;;;;;;;;16.82;50.37;101069.84;5077618;28;1035;-57
2022/06/04 08:28:34;;;;;;;;;;;;;;;16.74;50.15;101068.41;5078536;28;1216;-56
2022/06/04 08:31:02;;;;;;;;;;;;;;;16.79;49.67;101072.28;5064254;28;1968;-58
2022/06/04 08:33:27;;;;;;;;;;;;;;;16.63;49.18;101066.72;5065061;28;1102;-55
2022/06/04 08:35:53;;;;;;;;;;;;;;;16.63;48.56;101063.16;5067042;28;1084;-55
2022/06/04 08:38:18;;;;;;;;;;;;;;;16.55;48.04;101072.69;5074214;28;1147;-56
2022/06/04 08:40:48;;;;;;;;;;;;;;;16.51;47.37;101064.19;5071428;28;1500;-55
2022/06/04 08:43:16;;;;;;;;;;;;;;;16.38;47.25;101053.66;5057632;28;1055;-56
2022/06/04 08:45:41;;;;;;;;;;;;;;;16.33;46.81;101061.91;5052718;28;1008;-55
2022/06/04 08:48:15;;;;;;;;;;;;;;;16.24;46.85;101064.28;5074017;28;921;-55
2022/06/04 08:50:40;;;;;;;;;;;;;;;16.17;46.84;101064.53;5051354;28;1906;-55
2022/06/04 08:53:06;;;;;;;;;;;;;;;16.16;46.47;101062.03;5075623;28;1063;-56
2022/06/04 08:58:20;;;;;;;;;;;;;;;16.08;46.05;101058.69;5072775;28;1123;-56
2022/06/04 09:00:52;;;;;;;;;;;;;;;16.06;45.80;101058.16;5072784;28;1023;-56
2022/06/04 09:03:20;;;;;;;;;;;;;;;16.04;45.83;101052.06;5059445;28;1091;-56
2022/06/04 09:05:57;;;;;;;;;;;;;;;16.06;45.91;101052.66;5068940;28;984;-56
2022/06/04 09:08:34;;;;;;;;;;;;;;;16.03;45.75;101042.22;5049410;28;1028;-56
2022/06/04 09:10:59;;;;;;;;;;;;;;;15.94;46.16;101043.78;5072146;28;1968;-56
2022/06/04 09:13:29;;;;;;;;;;;;;;;15.86;45.89;101047.81;5069859;28;1055;-56
2022/06/04 09:15:56;;;;;;;;;;;;;;;15.92;45.90;101040.47;5074838;28;1047;-57
2022/06/04 09:18:25;;;;;;;;;;;;;;;15.93;45.83;101042.13;5070751;28;1020;-56
2022/06/04 09:20:55;;;;;;;;;;;;;;;15.89;45.91;101046.47;5063381;28;1080;-55
2022/06/04 09:23:22;;;;;;;;;;;;;;;15.85;46.04;101029.75;5076929;28;992;-55
2022/06/04 09:25:52;;;;;;;;;;;;;;;15.82;45.69;101034.91;5058661;28;1402;-57
2022/06/04 09:28:35;;;;;;;;;;;;;;;15.91;45.81;101034.16;5047559;28;1060;-57
2022/06/04 09:31:22;;;;;;;;;;;;;;;15.83;45.91;101037.38;5048516;28;1902;-58
2022/06/04 09:33:50;;;;;;;;;;;;;;;15.85;45.89;101034.38;5043894;28;1016;-57
2022/06/04 09:36:16;;;;;;;;;;;;;;;15.76;45.78;101024.97;5056899;28;1114;-56
2022/06/04 09:38:50;;;;;;;;;;;;;;;15.83;45.62;101040.13;5055204;28;1198;-55
2022/06/04 09:41:18;;;;;;;;;;;;;;;15.79;45.76;101025.28;5052791;28;1028;-56
2022/06/04 09:43:44;;;;;;;;;;;;;;;15.72;46.07;101028.25;5054450;28;1245;-57
2022/06/04 09:46:09;;;;;;;;;;;;;;;15.76;45.82;101033.19;5061242;28;961;-56
2022/06/04 09:48:36;;;;;;;;;;;;;;;15.73;45.91;101031.78;5072556;28;1082;-57
2022/06/04 09:51:02;;;;;;;;;;;;;;;15.85;47.08;101029.75;5055465;28;1977;-55
2022/06/04 09:53:32;;;;;;;;;;;;;;;15.83;46.78;101023.69;5068942;28;1209;-56
2022/06/04 09:55:58;;;;;;;;;;;;;;;15.82;46.45;101038.50;5076251;28;1008;-55
2022/06/04 09:58:28;;;;;;;;;;;;;;;15.74;46.48;101026.06;5072977;28;1182;-55
2022/06/04 10:01:00;;;;;;;;;;;;;;;15.69;46.47;101025.19;5071109;28;1036;-55
2022/06/04 10:03:26;;;;;;;;;;;;;;;15.71;45.91;101018.34;5068016;28;1063;-55
2022/06/04 10:06:01;;;;;;;;;;;;;;;15.71;46.15;101014.78;5045404;28;997;-56
2022/06/04 10:08:26;;;;;;;;;;;;;;;15.76;45.88;101020.31;5070051;28;1079;-56
2022/06/04 10:11:02;;;;;;;;;;;;;;;15.73;46.03;101026.31;5054967;28;1967;-56
2022/06/04 10:13:46;;;;;;;;;;;;;;;15.72;45.89;101021.91;5073739;28;1074;-56
2022/06/04 10:16:20;;;;;;;;;;;;;;;15.67;45.91;101028.19;5048379;28;1080;-56
2022/06/04 10:18:56;;;;;;;;;;;;;;;15.67;45.87;101022.72;5060476;28;1186;-59
2022/06/04 10:21:23;;;;;;;;;;;;;;;15.68;45.87;101018.88;5072724;28;969;-55
2022/06/04 10:23:51;;;;;;;;;;;;;;;15.63;45.81;101013.34;5066974;28;1027;-58
2022/06/04 10:26:26;;;;;;;;;;;;;;;15.60;46.04;101016.63;5045827;28;1067;-57
2022/06/04 10:29:14;;;;;;;;;;;;;;;15.62;45.75;101008.94;5069342;28;1980;-55
2022/06/04 10:32:00;;;;;;;;;;;;;;;15.57;45.72;101006.16;5051497;28;948;-58
2022/06/04 10:34:31;;;;;;;;;;;;;;;15.57;45.86;101003.41;5059805;28;1020;-57
2022/06/04 10:36:56;;;;;;;;;;;;;;;15.64;45.97;101003.19;5074108;28;1036;-56
2022/06/04 10:39:24;;;;;;;;;;;;;;;15.60;46.04;101000.19;5062483;28;1166;-57
2022/06/04 10:41:49;;;;;;;;;;;;;;;15.63;45.70;101007.88;5049445;28;1067;-56
2022/06/04 10:44:30;;;;;;;;;;;;;;;15.57;45.84;101000.66;5066393;28;1248;-56
2022/06/04 10:47:02;;;;;;;;;;;;;;;15.59;46.39;100993.03;5048222;28;1029;-58
2022/06/04 10:49:46;;;;;;;;;;;;;;;15.85;47.79;100991.34;5051837;28;1993;-58
2022/06/04 10:52:31;;;;;;;;;;;;;;;16.29;49.61;101005.88;5075716;28;1012;-57
2022/06/04 10:55:02;;;;;;;;;;;;;;;16.55;51.07;101006.81;5059106;28;1032;-57
2022/06/04 10:57:27;;;;;;;;;;;;;;;16.92;52.18;101008.66;5066230;28;1012;-57
2022/06/04 10:59:54;;;;;;;;;;;;;;;17.22;52.74;101001.56;5068883;28;992;-57
2022/06/04 11:02:25;;;;;;;;;;;;;;;17.39;53.14;101007.66;5052869;28;1030;-57
2022/06/04 11:04:54;;;;;;;;;;;;;;;17.33;52.94;101010.66;5050800;28;1117;-57
2022/06/04 11:07:38;;;;;;;;;;;;;;;17.15;52.39;101012.81;5059290;28;1001;-58
2022/06/04 11:10:05;;;;;;;;;;;;;;;17.03;51.07;101010.31;5075504;28;1984;-57
2022/06/04 11:12:34;;;;;;;;;;;;;;;16.90;50.33;101002.59;5051441;28;1000;-58
2022/06/04 11:15:04;;;;;;;;;;;;;;;16.76;49.53;101008.56;5063305;28;1004;-58
2022/06/04 11:17:50;;;;;;;;;;;;;;;16.65;48.64;101009.63;5051015;28;975;-58
2022/06/04 11:20:17;;;;;;;;;;;;;;;16.51;48.20;101000.22;5047303;28;1213;-58
2022/06/04 11:22:44;;;;;;;;;;;;;;;16.43;47.77;100998.81;5050806;28;989;-57
2022/06/04 11:25:29;;;;;;;;;;;;;;;16.41;47.04;100999.09;5051270;28;1158;-58
2022/06/04 11:27:56;;;;;;;;;;;;;;;16.36;46.85;100990.81;5055340;28;1083;-58
2022/06/04 11:30:26;;;;;;;;;;;;;;;16.25;47.00;100994.59;5070799;28;1965;-58
2022/06/04 11:33:13;;;;;;;;;;;;;;;16.30;46.33;100986.41;5053834;28;1189;-58
2022/06/04 11:35:42;;;;;;;;;;;;;;;16.18;46.58;100988.53;5056822;28;1523;-56
2022/06/04 11:38:17;;;;;;;;;;;;;;;16.21;46.26;100990.75;5051439;28;1007;-57
2022/06/04 11:40:45;;;;;;;;;;;;;;;16.11;46.41;100987.94;5057979;28;1035;-57
2022/06/04 11:43:15;;;;;;;;;;;;;;;16.04;46.53;100983.50;5071034;28;1110;-59
2022/06/04 11:45:53;;;;;;;;;;;;;;;16.01;46.23;100989.53;5058923;28;1040;-58
2022/06/04 11:48:18;;;;;;;;;;;;;;;15.97;46.51;100979.34;5064988;28;1061;-58
2022/06/04 11:50:53;;;;;;;;;;;;;;;15.97;46.29;100973.88;5059328;28;1980;-58
2022/06/04 11:53:37;;;;;;;;;;;;;;;15.95;46.31;100967.81;5068769;28;1090;-56
2022/06/04 11:56:08;;;;;;;;;;;;;;;15.98;45.99;100970.88;5062599;28;1067;-57
2022/06/04 11:58:49;;;;;;;;;;;;;;;15.87;46.42;100967.22;5067009;28;1186;-59
2022/06/04 12:01:16;;;;;;;;;;;;;;;15.87;46.44;100967.22;5051345;28;1136;-60
2022/06/04 12:03:46;;;;;;;;;;;;;;;15.85;46.13;100963.09;5050424;28;1262;-57
2022/06/04 12:06:14;;;;;;;;;;;;;;;15.91;45.96;100951.88;5040566;28;1012;-59
2022/06/04 12:08:59;;;;;;;;;;;;;;;15.83;46.07;100957.88;5069416;28;1159;-58
2022/06/04 12:11:28;;;;;;;;;;;;;;;15.83;46.00;100965.28;5050189;28;1047;-57
2022/06/04 12:13:59;;;;;;;;;;;;;;;15.87;46.13;100958.19;5067609;28;1167;-58
2022/06/04 12:16:34;;;;;;;;;;;;;;;15.78;46.09;100957.81;5064373;28;1001;-57
2022/06/04 12:19:04;;;;;;;;;;;;;;;15.81;46.02;100953.72;5076161;28;1194;-57
2022/06/04 12:24:28;;;;;;;;;;;;;;;15.79;46.23;100950.41;5076274;28;854;-57
2022/06/04 12:27:03;;;;;;;;;;;;;;;15.76;46.18;100953.69;5065247;28;997;-57
2022/06/04 12:29:28;;;;;;;;;;;;;;;15.78;45.95;100954.22;5067373;28;1974;-56
2022/06/04 12:31:58;;;;;;;;;;;;;;;15.76;46.06;100954.50;5075903;28;844;-56
2022/06/04 12:34:27;;;;;;;;;;;;;;;15.69;46.32;100957.47;5065439;28;1229;-58
2022/06/04 12:36:53;;;;;;;;;;;;;;;15.71;45.93;100958.03;5076356;28;900;-58
2022/06/04 12:39:21;;;;;;;;;;;;;;;15.69;46.26;100959.38;5070920;28;1008;-57
2022/06/04 12:41:48;;;;;;;;;;;;;;;15.67;46.04;100953.31;5065033;28;1040;-56
2022/06/04 12:44:26;;;;;;;;;;;;;;;15.67;46.08;100950.59;5047483;28;1059;-58
2022/06/04 12:46:52;;;;;;;;;;;;;;;15.59;46.53;100943.69;5070045;28;867;-57
2022/06/04 12:49:25;;;;;;;;;;;;;;;15.64;46.14;100940.16;5074150;28;1898;-57
2022/06/04 12:52:02;;;;;;;;;;;;;;;15.65;46.13;100941.81;5046127;28;1320;-59
2022/06/04 12:54:30;;;;;;;;;;;;;;;15.69;45.83;100935.53;5048466;28;1096;-57
2022/06/04 12:56:57;;;;;;;;;;;;;;;15.66;45.98;100927.84;5069737;28;1277;-58
2022/06/04 12:59:26;;;;;;;;;;;;;;;15.63;46.09;100931.13;5073742;28;996;-58
2022/06/04 13:01:51;;;;;;;;;;;;;;;15.57;46.12;100933.00;5063342;28;1154;-57
2022/06/04 13:04:19;;;;;;;;;;;;;;;15.63;46.08;100933.84;5066009;28;1471;-56
2022/06/04 13:06:53;;;;;;;;;;;;;;;15.57;46.14;100926.66;5074547;28;1138;-55